Detall de PIREP

Printer-friendly versionPDF version

[2014/02/02 06:39:00]
Flight IATA:CT2112
Pilot Number:041
Company ICAO:CAT
Aircraft Type:F50/A
PAX:37
Aircraft Registration:PAOB
Departing Airport: LEVC
Destination Airport: LEZL
Alternate Airport:LEMG
Online: VATSIM
Route:ASTRO B28 VIBAS
Flight Level:FL180
No Slew and time accel
No pause
Crash detect
Detect pilot in Cockpit between each 30 and 45 minutes
06:39 Zero fuel Weight: 35104 Lbs, Fuel Weight: 4543 Lbs
06:39 VATSIM:LEVC 020600Z 26005KT CAVOK 06/M06 Q1017 NOSIG
06:39 VATSIM:LEZL 020600Z 00000KT CAVOK 03/02 Q1022 NOSIG
06:40 VOICE CATALONIAN
06:49 Parking Brakes off
06:58 Take-off
06:58 Take off Weight: 39482 Lbs
06:58 Wind: 259º @ 005 Knots Heading: 294º
06:58 POS N39º 29´ 30´´ W000º 29´ 19´´
06:58 Gear Up: 138 Knots
06:58 Flaps:2 at 138 Knots
06:59 Flaps:0 at 152 Knots
07:13 Wind:311º@015 Knots Heading: 235º Ground Speed: 219 Knots Altitude 17355 ft
07:13 TOC
07:13 Fuel Weight: 3827 Lb
07:28 Wind:312º@017 Knots Heading: 235º Ground Speed: 255 Knots Altitude 18205 ft
07:43 Wind:253º@017 Knots Heading: 227º Ground Speed: 244 Knots Altitude 18195 ft
07:44 TOD
07:44 Fuel Weight: 2822 Lb
07:58 Wind:238º@009 Knots Heading: 269º Ground Speed: 216 Knots Altitude 10213 ft
08:13 Wind:324º@000 Knots Heading: 274º Ground Speed: 197 Knots Altitude 3005 ft
08:15 Flaps:1 at 163 Knots
08:15 Flaps:2 at 153 Knots
08:16 Flaps:3 at 143 Knots
08:18 Gear Down: 135 Knots
08:19 Flaps:4 at 123 Knots
08:20 Flaps:5 at 105 Knots
08:20 Flaps:6 at 111 Knots
08:23 TouchDown:Rate -129 ft/min Speed: 98 Knots
08:24 VATSIM:LEZL 020800Z 00000KT CAVOK 04/03 Q1023 NOSIG
08:24 Land
08:24 Wind:353º@000 Knots
08:24 Heading: 269º
08:24 Flight Duration: 01:26
08:24 Landing Weight: 37171 Lbs
08:24 POS N37º 25´ 04´´ W005º 53´ 19´´
08:29 Parking brakes on
08:29 Block to Block Duration: 01:40
08:29 Final Fuel: 2021 Lbls
08:29 Spent Fuel: 2522 Lbls
08:29 Flight Length: 304 NM
08:29 TOD Land Length: 126 NM

Exportar CSV

Powered by Drupal - Modified by Danger4k